Time;durP1;ratioP1;P1;durP2;ratioP2;P2;SDS_P1;SDS_P2;PMS_P1;PMS_P2;Temp;Humidity;BMP_temperature;BMP_pressure;BME280_temperature;BME280_humidity;BME280_pressure;Samples;Min_cycle;Max_cycle;Signal;HPM_P1;HPM_P2
2022/07/17 00:01:16;;;;;;;10.63;6.78;;;;;;;25.80;45.36;99490.00;4974944;28;20097;-74
2022/07/17 00:03:41;;;;;;;7.03;6.43;;;;;;;25.82;45.34;99496.09;4975430;28;20473;-75
2022/07/17 00:06:13;;;;;;;10.10;6.85;;;;;;;25.61;46.20;99486.69;4991321;28;20065;-75
2022/07/17 00:08:38;;;;;;;11.85;6.93;;;;;;;25.61;46.12;99492.41;4975703;28;20093;-75
2022/07/17 00:11:04;;;;;;;11.05;6.85;;;;;;;25.32;47.02;99501.50;4976800;28;20035;-75
2022/07/17 00:13:30;;;;;;;26.63;8.55;;;;;;;25.45;47.06;99490.22;4976705;28;20520;-75
2022/07/17 00:15:55;;;;;;;7.78;6.97;;;;;;;25.22;47.38;99497.59;4976396;28;20026;-75
2022/07/17 00:18:21;;;;;;;15.23;7.18;;;;;;;25.24;47.98;99491.44;4976358;28;20026;-75
2022/07/17 00:20:47;;;;;;;17.65;10.63;;;;;;;25.26;47.71;99497.53;4991067;28;20054;-75
2022/07/17 00:23:12;;;;;;;36.10;14.43;;;;;;;25.16;47.91;99507.09;4975886;28;20033;-75
2022/07/17 00:25:38;;;;;;;25.23;14.18;;;;;;;25.05;48.35;99501.56;4976436;28;20030;-75
2022/07/17 00:28:04;;;;;;;28.85;14.48;;;;;;;25.17;48.05;99500.13;4976198;28;20033;-75
2022/07/17 00:30:30;;;;;;;23.00;13.68;;;;;;;25.10;47.59;99509.66;4974800;28;20121;-75
2022/07/17 00:32:55;;;;;;;19.75;11.35;;;;;;;25.09;47.44;99503.09;4976207;28;20022;-75
2022/07/17 00:35:22;;;;;;;24.88;11.40;;;;;;;24.91;47.91;99502.59;4976107;28;20030;-75
2022/07/17 00:37:49;;;;;;;23.42;11.15;;;;;;;24.69;48.47;99497.19;4975188;28;20026;-74
2022/07/17 00:40:20;;;;;;;34.95;11.15;;;;;;;24.81;48.29;99496.63;4975851;28;20106;-75
2022/07/17 00:42:46;;;;;;;18.10;11.23;;;;;;;24.71;48.31;99500.41;4975739;28;20027;-75
2022/07/17 00:45:12;;;;;;;27.05;12.70;;;;;;;25.01;48.24;99507.34;4975967;28;20101;-75
2022/07/17 00:47:54;;;;;;;21.98;12.20;;;;;;;24.98;48.28;99496.78;4975463;28;20027;-75
2022/07/17 00:50:25;;;;;;;25.77;12.27;;;;;;;25.03;48.47;99506.91;4975766;28;20051;-75
2022/07/17 00:52:51;;;;;;;26.13;13.45;;;;;;;24.70;49.13;99503.72;4975035;28;20022;-75
2022/07/17 00:55:17;;;;;;;35.63;14.82;;;;;;;24.87;48.83;99508.38;4975600;28;20392;-75
2022/07/17 00:57:46;;;;;;;26.90;14.93;;;;;;;24.25;50.56;99514.13;4975352;28;20054;-75
2022/07/17 01:00:12;;;;;;;21.33;11.35;;;;;;;24.01;50.33;99507.47;4975695;28;20029;-74
2022/07/17 01:02:38;;;;;;;17.83;10.93;;;;;;;24.08;50.37;99513.13;4975510;28;20039;-75
2022/07/17 01:05:05;;;;;;;13.30;9.63;;;;;;;24.10;49.85;99513.50;4975295;28;20465;-75
2022/07/17 01:07:32;;;;;;;16.70;11.40;;;;;;;23.91;50.95;99512.06;4974309;28;20019;-75
2022/07/17 01:09:57;;;;;;;20.92;12.10;;;;;;;23.72;51.46;99522.91;4975101;28;20022;-75
2022/07/17 01:12:24;;;;;;;26.67;14.45;;;;;;;23.64;51.70;99516.44;4973938;28;20026;-75
2022/07/17 01:14:52;;;;;;;21.60;13.93;;;;;;;23.63;51.59;99511.97;4975167;28;20019;-75
2022/07/17 01:17:17;;;;;;;21.15;14.57;;;;;;;23.40;52.37;99519.13;4973828;28;20085;-75
2022/07/17 01:19:43;;;;;;;16.55;12.65;;;;;;;23.14;53.07;99518.50;4973744;28;20026;-75
2022/07/17 01:22:09;;;;;;;19.65;12.88;;;;;;;22.98;53.67;99516.19;4974070;28;20053;-75
2022/07/17 01:24:38;;;;;;;38.92;15.73;;;;;;;22.71;54.90;99530.25;4973381;28;20053;-74
2022/07/17 01:27:03;;;;;;;16.67;11.68;;;;;;;22.66;55.62;99533.53;4975272;28;20043;-75
2022/07/17 01:29:29;;;;;;;12.23;9.85;;;;;;;22.96;54.84;99540.66;4990025;28;20037;-75
2022/07/17 01:31:54;;;;;;;9.73;8.75;;;;;;;22.69;55.64;99536.34;4975058;28;20069;-75
2022/07/17 01:34:20;;;;;;;11.15;9.27;;;;;;;22.58;55.61;99527.88;4973481;28;20039;-74
2022/07/17 01:36:45;;;;;;;8.52;7.70;;;;;;;22.54;55.88;99538.47;4974369;28;20482;-75
2022/07/17 01:39:11;;;;;;;10.07;8.50;;;;;;;22.32;56.61;99531.22;4973685;28;20030;-75
2022/07/17 01:41:36;;;;;;;8.48;7.68;;;;;;;22.43;56.60;99541.34;4975070;28;20464;-74
2022/07/17 01:44:03;;;;;;;10.02;8.88;;;;;;;22.43;56.39;99529.97;4974895;28;20022;-75
2022/07/17 01:46:29;;;;;;;12.38;8.63;;;;;;;22.45;56.71;99543.81;4973620;28;20457;-75
2022/07/17 01:48:55;;;;;;;9.13;8.15;;;;;;;22.95;55.42;99545.53;4974084;28;20065;-74
2022/07/17 01:51:21;;;;;;;8.88;7.60;;;;;;;23.37;54.14;99542.78;4974998;28;20049;-75
2022/07/17 01:53:46;;;;;;;8.20;7.50;;;;;;;23.46;53.86;99547.22;4974415;28;20461;-75
2022/07/17 01:56:12;;;;;;;9.02;8.13;;;;;;;23.58;53.17;99546.69;4973298;28;20034;-75
2022/07/17 01:58:38;;;;;;;11.35;8.07;;;;;;;23.77;52.84;99547.31;4974621;28;20528;-75
2022/07/17 02:01:03;;;;;;;8.23;7.43;;;;;;;23.97;52.42;99551.16;4972505;28;20050;-75
2022/07/17 02:03:29;;;;;;;12.98;8.00;;;;;;;23.85;52.37;99551.72;4973154;28;20129;-75
2022/07/17 02:05:54;;;;;;;14.43;7.35;;;;;;;23.81;52.50;99548.09;4974460;28;20392;-75
2022/07/17 02:08:20;;;;;;;26.58;9.13;;;;;;;23.76;53.35;99554.25;4973896;28;20039;-75
2022/07/17 02:10:46;;;;;;;23.40;7.97;;;;;;;23.86;52.57;99556.19;4974447;28;20085;-75
2022/07/17 02:13:11;;;;;;;23.00;8.95;;;;;;;23.50;53.62;99540.25;4989318;28;20026;-74
2022/07/17 02:15:37;;;;;;;8.45;7.75;;;;;;;23.04;54.25;99549.97;4973511;28;20034;-75
2022/07/17 02:18:02;;;;;;;8.25;7.50;;;;;;;22.92;54.61;99552.09;4989386;28;20157;-75
2022/07/17 02:20:28;;;;;;;10.50;8.27;;;;;;;23.04;54.13;99556.47;4974171;28;20496;-74
2022/07/17 02:22:53;;;;;;;12.25;8.00;;;;;;;23.08;54.28;99553.59;4988612;28;20026;-75
2022/07/17 02:25:19;;;;;;;11.63;7.70;;;;;;;23.11;53.90;99553.59;4974064;28;20109;-75
2022/07/17 02:27:45;;;;;;;8.13;7.43;;;;;;;23.08;53.99;99548.72;4972257;28;20041;-74
2022/07/17 02:30:13;;;;;;;8.07;7.30;;;;;;;23.22;53.83;99556.34;4980424;28;20469;-74
2022/07/17 02:32:39;;;;;;;10.07;8.00;;;;;;;23.32;53.28;99557.53;4973915;28;20092;-74
2022/07/17 02:35:06;;;;;;;9.10;7.57;;;;;;;23.15;53.99;99564.97;4973729;28;20030;-74
2022/07/17 02:37:32;;;;;;;8.63;7.10;;;;;;;23.14;53.60;99549.09;4973881;28;20026;-75
2022/07/17 02:39:58;;;;;;;14.52;8.30;;;;;;;23.07;54.28;99555.66;4988674;28;20106;-74
2022/07/17 02:42:26;;;;;;;8.57;7.68;;;;;;;23.11;53.82;99565.00;4973414;28;20068;-74
2022/07/17 02:44:53;;;;;;;9.40;7.70;;;;;;;22.85;54.78;99557.84;4972974;28;20109;-75
2022/07/17 02:47:27;;;;;;;12.90;9.20;;;;;;;22.72;55.10;99551.81;4988623;28;20027;-75
2022/07/17 02:49:53;;;;;;;28.90;10.05;;;;;;;22.73;54.99;99556.28;4973331;28;20054;-75
2022/07/17 02:52:20;;;;;;;13.77;9.43;;;;;;;22.52;55.50;99557.25;4973590;28;20031;-75
2022/07/17 02:54:45;;;;;;;22.02;11.35;;;;;;;22.46;55.69;99553.16;4988330;28;20505;-75
2022/07/17 02:57:11;;;;;;;11.43;8.27;;;;;;;22.48;55.32;99560.09;4973318;28;20061;-74
2022/07/17 02:59:37;;;;;;;11.13;8.73;;;;;;;22.46;55.30;99561.69;4987702;28;20046;-75
2022/07/17 03:02:02;;;;;;;33.65;11.68;;;;;;;22.53;54.90;99564.56;4973300;28;20099;-75
2022/07/17 03:04:28;;;;;;;24.80;7.95;;;;;;;22.61;54.61;99566.13;4986798;28;20556;-75
2022/07/17 03:06:53;;;;;;;11.82;9.85;;;;;;;22.63;54.70;99568.56;4973318;28;20038;-74
2022/07/17 03:09:19;;;;;;;9.10;6.78;;;;;;;22.71;53.77;99570.94;4973409;28;20520;-75
2022/07/17 03:11:44;;;;;;;11.82;7.43;;;;;;;22.74;54.15;99574.19;4972794;28;20062;-74
2022/07/17 03:14:10;;;;;;;9.85;7.57;;;;;;;22.77;53.93;99574.19;4970358;28;20085;-74
2022/07/17 03:16:35;;;;;;;15.13;8.27;;;;;;;22.62;54.34;99566.94;4973282;28;20113;-75
2022/07/17 03:19:01;;;;;;;21.33;8.68;;;;;;;22.78;54.21;99580.72;4971314;28;20468;-75
2022/07/17 03:21:27;;;;;;;14.52;7.50;;;;;;;22.86;53.87;99593.66;4973117;28;20038;-75
2022/07/17 03:23:52;;;;;;;18.98;7.78;;;;;;;22.69;54.18;99584.03;4972953;28;20023;-75
2022/07/17 03:26:17;;;;;;;12.35;7.72;;;;;;;22.73;53.95;99590.50;4973132;28;20504;-75
2022/07/17 03:28:43;;;;;;;13.73;6.97;;;;;;;22.82;53.31;99585.16;4972242;28;20033;-74
2022/07/17 03:31:08;;;;;;;13.32;7.03;;;;;;;22.85;53.08;99592.06;4973197;28;20540;-74
2022/07/17 03:33:34;;;;;;;15.20;6.75;;;;;;;22.92;53.16;99592.00;4971538;28;20110;-73
2022/07/17 03:35:59;;;;;;;18.50;6.25;;;;;;;23.02;52.94;99601.72;4969921;28;20438;-75
2022/07/17 03:38:25;;;;;;;14.73;6.35;;;;;;;23.06;52.52;99602.53;4971553;28;20413;-75
2022/07/17 03:40:50;;;;;;;15.10;7.65;;;;;;;23.17;51.94;99598.75;4970515;28;20042;-75
2022/07/17 03:43:16;;;;;;;6.85;6.13;;;;;;;23.17;52.48;99598.75;4971971;28;20066;-75
2022/07/17 03:45:41;;;;;;;9.38;5.78;;;;;;;23.21;51.66;99602.41;4971592;28;20022;-75
2022/07/17 03:48:07;;;;;;;10.90;5.72;;;;;;;23.23;51.81;99600.78;4972053;28;20045;-75
2022/07/17 03:50:33;;;;;;;11.48;6.20;;;;;;;23.24;51.83;99595.88;4972199;28;20399;-75
2022/07/17 03:52:58;;;;;;;13.52;5.60;;;;;;;23.32;51.64;99599.50;4972324;28;20493;-75
2022/07/17 03:55:24;;;;;;;24.00;10.77;;;;;;;23.39;51.02;99605.97;4972292;28;20441;-75
2022/07/17 03:57:49;;;;;;;26.63;19.25;;;;;;;23.39;50.93;99605.97;4970368;28;20117;-75
2022/07/17 04:00:15;;;;;;;39.05;22.17;;;;;;;23.45;50.93;99608.38;4970769;28;20030;-75
2022/07/17 04:02:41;;;;;;;40.70;25.85;;;;;;;23.44;50.81;99612.47;4969778;28;20027;-75
2022/07/17 04:05:10;;;;;;;41.67;24.52;;;;;;;23.50;50.36;99620.16;4970465;28;20031;-75
2022/07/17 04:07:40;;;;;;;21.52;13.32;;;;;;;23.53;50.19;99609.91;4970982;28;20023;-75
2022/07/17 04:10:06;;;;;;;;;;;;;;;23.58;50.06;99623.75;4971925;28;20054;-75
2022/07/17 04:12:31;;;;;;;18.40;9.18;;;;;;;23.56;50.11;99614.81;4972173;28;19942;-75
2022/07/17 04:14:57;;;;;;;18.92;9.60;;;;;;;23.58;50.50;99623.75;4972133;28;20174;-75
2022/07/17 04:17:23;;;;;;;15.20;8.05;;;;;;;23.55;50.41;99616.84;4978508;28;20034;-75
2022/07/17 04:19:49;;;;;;;13.95;7.63;;;;;;;23.61;50.13;99624.97;4982635;28;20045;-75
2022/07/17 04:22:14;;;;;;;15.02;7.82;;;;;;;23.73;50.19;99630.16;4971539;28;20027;-75
2022/07/17 04:24:40;;;;;;;115.10;49.42;;;;;;;23.81;49.84;99628.84;4970364;28;20026;-75
2022/07/17 04:27:06;;;;;;;69.60;38.78;;;;;;;23.84;50.23;99639.44;4966381;28;20030;-75
2022/07/17 04:29:32;;;;;;;46.60;28.55;;;;;;;23.87;49.65;99626.34;4971556;28;20402;-75
2022/07/17 04:31:58;;;;;;;23.77;12.27;;;;;;;24.05;49.53;99637.63;4971372;28;20034;-73
2022/07/17 04:34:24;;;;;;;12.82;6.85;;;;;;;24.10;48.81;99633.50;4972003;28;20042;-75
2022/07/17 04:36:50;;;;;;;22.05;7.68;;;;;;;24.15;47.33;99641.63;4971314;28;20029;-77
2022/07/17 04:39:15;;;;;;;20.67;6.30;;;;;;;24.27;47.13;99645.97;4971915;28;20034;-74
2022/07/17 04:41:41;;;;;;;15.65;5.97;;;;;;;24.35;46.72;99638.94;4986687;28;20042;-74
2022/07/17 04:44:06;;;;;;;17.23;8.15;;;;;;;24.50;46.03;99655.91;4986507;28;20109;-71
2022/07/17 04:46:32;;;;;;;30.38;12.93;;;;;;;24.65;46.78;99659.41;4972442;28;20031;-72
2022/07/17 04:48:57;;;;;;;35.65;19.55;;;;;;;24.71;46.02;99666.25;4973877;28;20070;-74
2022/07/17 04:51:23;;;;;;;79.82;38.10;;;;;;;24.75;45.77;99660.50;4973867;28;20046;-73
2022/07/17 04:53:48;;;;;;;46.17;22.80;;;;;;;25.04;45.68;99660.97;4975045;28;20034;-75
2022/07/17 04:56:13;;;;;;;9.27;5.43;;;;;;;25.18;44.25;99653.41;4987675;28;20030;-73
2022/07/17 04:58:39;;;;;;;14.18;4.93;;;;;;;25.26;44.22;99663.50;4973664;28;20056;-74
2022/07/17 05:01:05;;;;;;;12.68;4.65;;;;;;;25.31;44.51;99662.22;4973069;28;20113;-75
2022/07/17 05:03:30;;;;;;;11.43;5.55;;;;;;;25.30;44.78;99667.13;4989859;28;20413;-75
2022/07/17 05:05:55;;;;;;;20.35;5.60;;;;;;;25.37;44.96;99667.03;4974490;28;20075;-74
2022/07/17 05:08:21;;;;;;;13.52;5.13;;;;;;;25.26;45.19;99660.66;4974864;28;20086;-74
2022/07/17 05:10:46;;;;;;;6.97;4.55;;;;;;;25.26;45.37;99663.50;4971888;28;20540;-73
2022/07/17 05:13:12;;;;;;;9.65;3.72;;;;;;;25.38;43.80;99671.50;4973865;28;20066;-73
2022/07/17 05:15:38;;;;;;;11.55;4.05;;;;;;;25.57;44.04;99674.13;4974474;28;20041;-74
2022/07/17 05:18:06;;;;;;;15.98;4.20;;;;;;;25.65;41.46;99672.75;4975234;28;20031;-74
2022/07/17 05:20:32;;;;;;;7.38;3.03;;;;;;;25.67;40.67;99661.69;4989869;28;20429;-74
2022/07/17 05:22:57;;;;;;;6.53;3.20;;;;;;;25.72;40.25;99674.69;4974628;28;20035;-74
2022/07/17 05:25:23;;;;;;;12.18;3.38;;;;;;;25.78;39.85;99670.09;4974252;28;20041;-73
2022/07/17 05:27:48;;;;;;;15.80;3.67;;;;;;;25.89;39.30;99673.56;4989024;28;20027;-74
2022/07/17 05:30:14;;;;;;;67.25;8.75;;;;;;;25.82;39.24;99672.88;4971764;28;20046;-74
2022/07/17 05:32:39;;;;;;;11.48;3.78;;;;;;;25.83;39.45;99681.06;4966249;28;20058;-74
2022/07/17 05:35:05;;;;;;;15.02;4.25;;;;;;;25.97;38.17;99673.47;4972026;28;20034;-74
2022/07/17 05:37:31;;;;;;;12.98;3.97;;;;;;;26.02;37.31;99664.34;4971027;28;20033;-75
2022/07/17 05:39:56;;;;;;;28.13;4.70;;;;;;;25.97;37.36;99668.50;4973238;28;20074;-75
2022/07/17 05:42:22;;;;;;;13.13;3.40;;;;;;;26.05;37.34;99675.75;4973147;28;20466;-74
2022/07/17 05:44:48;;;;;;;10.73;3.60;;;;;;;26.09;36.78;99675.69;4996191;28;20511;-74
2022/07/17 05:47:13;;;;;;;15.50;3.53;;;;;;;26.05;37.52;99681.47;4970230;28;20027;-74
2022/07/17 05:49:39;;;;;;;11.95;3.38;;;;;;;26.27;37.45;99688.88;4971971;28;20126;-74
2022/07/17 05:52:05;;;;;;;8.68;3.28;;;;;;;26.35;37.44;99694.03;4972385;28;20054;-74
2022/07/17 05:54:32;;;;;;;21.92;5.25;;;;;;;26.27;37.47;99694.63;4970914;28;20093;-77
2022/07/17 05:56:58;;;;;;;10.43;3.67;;;;;;;26.32;37.05;99697.78;4972133;28;20576;-78
2022/07/17 05:59:24;;;;;;;11.13;3.30;;;;;;;26.31;36.31;99704.00;4988965;28;20034;-75
2022/07/17 06:01:49;;;;;;;9.73;3.45;;;;;;;26.57;35.46;99702.22;4960348;28;20066;-81
2022/07/17 06:04:15;;;;;;;13.98;3.55;;;;;;;26.51;35.61;99697.44;4972696;28;20070;-78
2022/07/17 06:06:41;;;;;;;10.32;3.85;;;;;;;26.72;35.39;99696.19;4972257;28;20030;-78
2022/07/17 06:09:06;;;;;;;9.43;3.88;;;;;;;26.75;35.11;99701.06;4971976;28;20482;-75
2022/07/17 06:11:32;;;;;;;5.75;3.30;;;;;;;26.71;35.58;99703.19;4973863;28;20035;-78
2022/07/17 06:13:57;;;;;;;8.95;3.47;;;;;;;27.00;34.65;99706.31;4972592;28;20062;-76
2022/07/17 06:16:23;;;;;;;8.80;3.90;;;;;;;27.03;34.10;99699.69;4973785;28;20034;-75
2022/07/17 06:18:48;;;;;;;7.13;3.50;;;;;;;27.08;34.51;99694.66;4972901;28;20522;-77
2022/07/17 06:21:14;;;;;;;11.45;3.90;;;;;;;27.23;34.03;99695.97;4987917;28;20121;-78
2022/07/17 06:23:39;;;;;;;11.30;3.00;;;;;;;27.25;32.80;99701.28;4985805;28;20552;-79
2022/07/17 06:26:05;;;;;;;18.02;4.20;;;;;;;27.09;32.51;99694.25;4969644;28;20060;-74
2022/07/17 06:28:30;;;;;;;15.05;3.80;;;;;;;27.18;32.51;99696.50;4971050;28;20039;-75
2022/07/17 06:30:56;;;;;;;8.55;3.90;;;;;;;27.36;32.48;99703.88;4971050;28;20026;-77
2022/07/17 06:33:22;;;;;;;20.38;3.80;;;;;;;27.51;32.79;99699.41;4985031;28;20030;-75
2022/07/17 06:35:47;;;;;;;14.05;3.20;;;;;;;27.49;32.10;99683.91;4970603;28;20027;-75
2022/07/17 06:38:13;;;;;;;21.80;4.80;;;;;;;27.70;32.23;99702.69;4970502;28;20034;-77
2022/07/17 06:40:38;;;;;;;8.10;3.22;;;;;;;27.84;31.70;99699.47;4971021;28;20023;-76
2022/07/17 06:43:05;;;;;;;10.73;3.25;;;;;;;27.65;31.98;99700.38;4977966;28;20027;-80
2022/07/17 06:45:31;;;;;;;8.00;3.22;;;;;;;27.88;32.52;99690.75;4969903;28;20027;-77
2022/07/17 06:47:56;;;;;;;15.25;3.42;;;;;;;27.88;30.83;99694.44;4970534;28;20041;-76
2022/07/17 06:50:22;;;;;;;9.73;3.03;;;;;;;27.98;30.47;99700.34;4970513;28;20062;-77
2022/07/17 06:52:47;;;;;;;6.80;2.90;;;;;;;28.00;29.98;99700.72;4961008;28;20070;-75
2022/07/17 06:55:13;;;;;;;7.03;2.70;;;;;;;28.32;30.90;99701.16;4963216;28;20085;-81
2022/07/17 06:57:39;;;;;;;7.20;3.15;;;;;;;28.42;29.56;99697.19;4964295;28;20059;-75
2022/07/17 07:00:05;;;;;;;9.52;2.72;;;;;;;28.34;29.49;99698.63;4972396;28;20023;-76
2022/07/17 07:02:30;;;;;;;5.32;2.78;;;;;;;28.37;29.73;99700.59;4967966;28;20126;-77
2022/07/17 07:04:56;;;;;;;9.55;3.03;;;;;;;28.54;29.68;99696.44;4973299;28;20058;-77
2022/07/17 07:07:21;;;;;;;10.77;3.67;;;;;;;28.44;30.28;99701.19;4987468;28;20089;-78
2022/07/17 07:09:47;;;;;;;9.32;3.25;;;;;;;28.48;30.29;99706.88;4965325;28;20023;-81
2022/07/17 07:12:12;;;;;;;3.08;2.30;;;;;;;28.54;28.94;99707.13;4969510;28;20034;-82
2022/07/17 07:14:38;;;;;;;4.93;2.70;;;;;;;28.28;29.67;99707.00;4973151;28;20065;-81
2022/07/17 07:17:03;;;;;;;4.80;2.90;;;;;;;28.50;29.09;99712.97;4966471;28;20028;-78
2022/07/17 07:19:28;;;;;;;6.60;2.63;;;;;;;28.67;28.77;99710.06;4968411;28;20030;-82
2022/07/17 07:21:54;;;;;;;3.28;2.65;;;;;;;28.65;29.45;99724.88;4965439;28;20034;-83
2022/07/17 07:24:19;;;;;;;8.48;2.70;;;;;;;28.90;28.33;99711.06;4963813;28;20034;-81
2022/07/17 07:26:45;;;;;;;4.63;2.47;;;;;;;28.64;27.08;99710.94;4970292;28;20523;-74
2022/07/17 07:29:10;;;;;;;5.90;2.80;;;;;;;28.44;28.18;99717.66;4982683;28;20065;-77
2022/07/17 07:31:36;;;;;;;7.80;3.03;;;;;;;28.75;28.68;99713.53;4973011;28;20030;-75
2022/07/17 07:34:01;;;;;;;6.45;3.55;;;;;;;29.10;28.06;99713.75;4967373;28;20034;-76
2022/07/17 07:36:27;;;;;;;6.35;2.80;;;;;;;29.02;28.32;99716.03;4964548;28;20470;-79
2022/07/17 07:38:53;;;;;;;6.03;3.42;;;;;;;29.22;28.14;99723.66;4972745;28;20073;-77
2022/07/17 07:41:18;;;;;;;4.88;3.08;;;;;;;29.19;28.08;99715.97;4973189;28;20035;-80
2022/07/17 07:43:44;;;;;;;4.20;2.50;;;;;;;28.83;28.19;99726.47;4972512;28;20041;-80
2022/07/17 07:46:09;;;;;;;6.13;2.90;;;;;;;28.67;27.67;99725.22;4972542;28;20035;-78
2022/07/17 07:48:35;;;;;;;5.55;2.83;;;;;;;29.02;27.93;99726.75;4971810;28;20255;-78
2022/07/17 07:51:01;;;;;;;21.25;3.80;;;;;;;29.09;27.59;99720.78;4973067;28;20059;-81
2022/07/17 07:53:27;;;;;;;5.90;2.88;;;;;;;29.38;27.69;99725.66;4969996;28;20053;-79
2022/07/17 07:55:52;;;;;;;14.10;3.63;;;;;;;29.28;26.96;99724.72;4966113;28;20030;-78
2022/07/17 07:58:19;;;;;;;7.55;2.65;;;;;;;29.04;27.21;99724.22;4970738;28;20122;-77
2022/07/17 08:00:45;;;;;;;6.25;2.65;;;;;;;29.48;28.07;99718.78;4971385;28;20030;-74
2022/07/17 08:03:11;;;;;;;9.75;2.95;;;;;;;29.59;26.77;99729.16;4972567;28;20097;-77
2022/07/17 08:05:36;;;;;;;14.98;3.05;;;;;;;29.49;27.10;99729.03;4960796;28;20101;-79
2022/07/17 08:08:02;;;;;;;6.75;2.50;;;;;;;29.70;27.48;99723.84;4964207;28;20121;-78
2022/07/17 08:10:30;;;;;;;5.72;2.72;;;;;;;29.70;27.65;99732.50;4986393;28;20054;-78
2022/07/17 08:12:56;;;;;;;6.00;2.55;;;;;;;29.67;26.88;99730.53;4971526;28;20039;-78
2022/07/17 08:15:22;;;;;;;5.75;2.85;;;;;;;29.70;28.52;99739.06;4972192;28;20105;-78
2022/07/17 08:17:50;;;;;;;12.13;3.33;;;;;;;29.44;25.85;99732.47;4970507;28;20130;-79
2022/07/17 08:20:17;;;;;;;12.82;2.58;;;;;;;29.56;27.21;99734.59;4973044;28;20031;-79
2022/07/17 08:22:44;;;;;;;5.47;2.65;;;;;;;29.82;26.43;99734.56;4974094;28;20027;-77
2022/07/17 08:25:10;;;;;;;9.00;2.70;;;;;;;29.78;26.22;99733.06;4970574;28;20031;-76
2022/07/17 08:27:40;;;;;;;2.22;2.00;;;;;;;29.71;27.12;99734.09;4975927;28;20031;-77
2022/07/17 08:30:06;;;;;;;;;;;;;;;29.52;27.50;99730.19;4976147;28;20506;-77
2022/07/17 08:32:32;;;;;;;6.03;3.10;;;;;;;29.80;27.47;99734.19;4975429;28;20340;-77
2022/07/17 08:34:57;;;;;;;4.32;2.67;;;;;;;30.04;26.74;99730.97;4974494;28;20126;-76
2022/07/17 08:37:24;;;;;;;4.22;2.67;;;;;;;30.07;27.37;99729.25;4973858;28;20096;-76
2022/07/17 08:39:50;;;;;;;7.35;2.85;;;;;;;30.04;26.40;99733.06;4985253;28;20113;-76
2022/07/17 08:42:16;;;;;;;8.23;3.53;;;;;;;30.35;27.17;99730.31;4955324;29;20057;-76
2022/07/17 08:44:45;;;;;;;8.07;2.70;;;;;;;30.38;25.75;99735.16;4970901;28;20046;-75
2022/07/17 08:47:12;;;;;;;7.28;2.83;;;;;;;30.22;25.81;99726.69;4974457;28;20062;-74
2022/07/17 08:49:43;;;;;;;11.07;2.40;;;;;;;30.45;24.48;99733.31;4975489;28;20106;-74
2022/07/17 08:52:10;;;;;;;9.00;2.42;;;;;;;30.46;25.51;99726.25;4973485;28;20026;-75
2022/07/17 08:54:36;;;;;;;3.83;2.65;;;;;;;30.58;25.14;99728.28;4969126;28;20030;-79
2022/07/17 08:57:03;;;;;;;5.60;3.58;;;;;;;30.89;25.92;99726.78;4972131;28;20030;-83
2022/07/17 08:59:29;;;;;;;4.63;2.83;;;;;;;31.22;25.61;99723.50;4986852;28;20030;-77
2022/07/17 09:01:55;;;;;;;8.52;4.07;;;;;;;31.41;25.74;99724.38;4986419;28;20070;-73
2022/07/17 09:04:21;;;;;;;7.30;2.35;;;;;;;31.24;25.58;99724.59;4972741;28;20470;-76
2022/07/17 09:06:56;;;;;;;11.70;2.72;;;;;;;31.25;24.84;99728.31;4972322;28;20027;-77
2022/07/17 09:09:22;;;;;;;5.80;3.67;;;;;;;31.39;25.09;99721.19;4967922;28;20060;-77
2022/07/17 09:11:50;;;;;;;8.25;3.67;;;;;;;31.43;25.04;99730.50;4972192;28;20023;-79
2022/07/17 09:14:18;;;;;;;13.98;5.45;;;;;;;31.30;24.91;99726.91;4972597;28;20077;-76
2022/07/17 09:16:59;;;;;;;6.78;3.97;;;;;;;31.54;24.01;99720.59;4978725;28;20027;-76
2022/07/17 09:19:33;;;;;;;8.13;3.95;;;;;;;31.22;24.36;99720.59;4972915;28;20065;-80
2022/07/17 09:22:21;;;;;;;5.15;3.28;;;;;;;31.33;24.50;99725.94;4966542;28;20501;-76
2022/07/17 09:24:58;;;;;;;11.07;2.90;;;;;;;31.85;24.33;99719.75;4965957;28;20026;-77
2022/07/17 09:27:23;;;;;;;3.63;2.30;;;;;;;31.90;23.20;99719.13;4966473;28;20034;-76
2022/07/17 09:30:11;;;;;;;7.22;2.40;;;;;;;32.12;23.29;99715.34;4969645;28;20102;-76
2022/07/17 09:32:40;;;;;;;4.18;2.85;;;;;;;32.23;23.90;99709.88;4992088;28;20293;-76
2022/07/17 09:35:08;;;;;;;9.35;3.03;;;;;;;32.10;23.67;99715.81;4973912;28;20105;-81
2022/07/17 09:37:35;;;;;;;6.32;2.53;;;;;;;31.97;24.10;99703.56;4973131;28;20122;-81
2022/07/17 09:40:08;;;;;;;4.40;2.47;;;;;;;31.89;24.34;99706.75;4973123;28;20064;-81
2022/07/17 09:42:34;;;;;;;6.05;2.63;;;;;;;32.04;24.20;99706.94;4971666;28;20485;-80
2022/07/17 09:45:02;;;;;;;19.30;3.33;;;;;;;32.12;24.11;99704.56;4972827;28;20027;-80
2022/07/17 09:47:29;;;;;;;7.30;3.10;;;;;;;32.25;24.63;99701.53;4966517;28;20039;-80
2022/07/17 09:49:56;;;;;;;8.85;2.45;;;;;;;32.48;22.94;99697.22;4984635;28;20053;-80
2022/07/17 09:52:24;;;;;;;2.35;2.15;;;;;;;32.76;23.33;99690.59;4965967;28;20381;-81
2022/07/17 09:54:51;;;;;;;10.70;2.83;;;;;;;32.76;22.41;99690.59;4972913;28;20089;-80
2022/07/17 09:57:18;;;;;;;17.85;4.20;;;;;;;32.70;21.98;99678.06;4973302;28;20054;-81
2022/07/17 09:59:45;;;;;;;4.32;2.30;;;;;;;32.75;22.28;99695.56;4973250;28;20517;-81
2022/07/17 10:02:11;;;;;;;5.25;2.70;;;;;;;32.54;21.79;99693.69;4988723;28;20035;-80
2022/07/17 10:04:37;;;;;;;117.05;9.00;;;;;;;32.72;22.26;99695.75;4972175;28;20069;-78
2022/07/17 10:07:03;;;;;;;5.10;2.80;;;;;;;32.42;21.29;99686.75;4987196;28;20104;-81
2022/07/17 10:09:30;;;;;;;5.50;2.30;;;;;;;32.22;21.09;99691.72;4973806;28;20027;-81
2022/07/17 10:11:55;;;;;;;6.10;2.72;;;;;;;32.13;21.98;99685.13;4976648;28;20050;-81
2022/07/17 10:14:22;;;;;;;6.10;2.45;;;;;;;32.48;21.39;99679.06;4973634;28;20080;-81
2022/07/17 10:16:47;;;;;;;7.35;6.60;;;;;;;32.72;22.55;99681.28;4970731;28;20061;-80
2022/07/17 10:19:24;;;;;;;7.03;2.50;;;;;;;32.99;20.99;99674.66;4972082;28;20109;-81
2022/07/17 10:21:58;;;;;;;3.80;2.25;;;;;;;33.00;21.91;99664.66;4969612;28;20039;-80
2022/07/17 10:24:25;;;;;;;4.15;3.67;;;;;;;33.24;21.29;99657.38;4971276;28;20109;-81
2022/07/17 10:26:51;;;;;;;7.28;2.75;;;;;;;33.59;21.91;99665.59;4971467;28;20031;-81
2022/07/17 10:29:36;;;;;;;6.43;2.33;;;;;;;34.00;20.90;99668.13;4972388;28;20485;-81
2022/07/17 10:32:22;;;;;;;11.80;3.17;;;;;;;34.33;20.73;99663.53;4972895;28;20037;-81
2022/07/17 10:35:02;;;;;;;2.72;2.10;;;;;;;33.73;20.12;99664.88;4971072;28;20047;-81
2022/07/17 10:37:36;;;;;;;3.67;2.17;;;;;;;33.78;20.35;99660.50;4962691;28;20062;-79
2022/07/17 10:40:17;;;;;;;5.72;1.90;;;;;;;33.17;19.43;99659.31;4987843;28;20042;-81
2022/07/17 10:42:57;;;;;;;5.20;2.67;;;;;;;33.18;20.53;99655.16;4971486;28;20073;-81
2022/07/17 10:45:25;;;;;;;4.72;2.22;;;;;;;34.12;20.50;99657.56;4986642;28;20034;-81
2022/07/17 10:47:57;;;;;;;2.33;1.98;;;;;;;34.40;19.64;99645.72;4972949;28;20098;-80
2022/07/17 10:50:55;;;;;;;4.55;2.03;;;;;;;34.72;19.74;99649.00;4972770;28;20456;-80
2022/07/17 10:53:24;;;;;;;5.70;2.27;;;;;;;34.90;19.72;99650.09;4950208;28;20126;-81
2022/07/17 10:55:54;;;;;;;2.92;2.63;;;;;;;34.85;19.22;99652.38;4972634;28;20828;-81
2022/07/17 10:58:24;;;;;;;3.42;2.03;;;;;;;34.39;18.66;99642.00;4973449;28;20049;-81
2022/07/17 11:01:12;;;;;;;9.52;3.00;;;;;;;34.52;19.59;99647.59;4966756;28;20117;-81
2022/07/17 11:03:40;;;;;;;6.05;1.90;;;;;;;34.98;19.37;99642.56;4966045;28;20378;-80
2022/07/17 11:06:14;;;;;;;4.25;1.83;;;;;;;35.14;18.56;99644.19;4967038;28;20046;-81
2022/07/17 11:08:54;;;;;;;3.00;2.28;;;;;;;35.34;18.59;99651.38;4971250;28;20501;-81
2022/07/17 11:11:22;;;;;;;2.35;1.83;;;;;;;35.52;18.33;99639.50;4970121;28;20045;-82
2022/07/17 11:13:48;;;;;;;2.60;1.90;;;;;;;35.39;18.46;99653.56;4973158;28;20035;-80
2022/07/17 11:16:24;;;;;;;8.82;2.38;;;;;;;35.32;17.62;99643.16;4972141;28;20030;-79
2022/07/17 11:18:50;;;;;;;3.13;1.77;;;;;;;35.53;17.59;99634.50;4970842;28;20023;-80
2022/07/17 11:21:16;;;;;;;2.53;2.08;;;;;;;35.67;18.16;99642.38;4970834;28;20027;-79
2022/07/17 11:23:53;;;;;;;9.48;1.90;;;;;;;35.76;17.94;99641.44;4969426;28;20410;-83
2022/07/17 11:26:20;;;;;;;2.42;1.70;;;;;;;35.36;17.58;99632.16;4963008;28;20106;-82
2022/07/17 11:28:47;;;;;;;5.05;1.80;;;;;;;35.39;18.10;99619.50;4969953;28;20054;-82